Time;durP1;ratioP1;P1;durP2;ratioP2;P2;SDS_P1;SDS_P2;PMS_P1;PMS_P2;Temp;Humidity;BMP_temperature;BMP_pressure;BME280_temperature;BME280_humidity;BME280_pressure;Samples;Min_cycle;Max_cycle;Signal;HPM_P1;HPM_P2
2023/08/31 00:01:52;;;;;;;224.73;12.03;;;;;;;23.38;54.86;98514.25;7285282;19;131526;-38
2023/08/31 00:04:18;;;;;;;196.23;10.82;;;;;;;23.39;54.59;98515.91;7283978;19;129223;-37
2023/08/31 00:06:46;;;;;;;224.83;12.47;;;;;;;23.41;54.32;98519.16;7283529;19;129884;-38
2023/08/31 00:09:12;;;;;;;180.15;9.93;;;;;;;23.25;54.48;98499.91;7281792;19;130240;-36
2023/08/31 00:11:38;;;;;;;245.17;13.17;;;;;;;23.38;54.08;98530.81;7284330;19;132516;-36
2023/08/31 00:14:04;;;;;;;234.63;13.90;;;;;;;23.31;54.18;98527.25;7283614;19;129287;-39
2023/08/31 00:16:29;;;;;;;160.73;9.37;;;;;;;23.38;54.40;98543.94;7281853;19;129887;-34
2023/08/31 00:18:56;;;;;;;171.40;9.90;;;;;;;23.37;54.29;98560.66;7284462;19;130229;-36
2023/08/31 00:21:22;;;;;;;;;;;;;;;23.25;56.05;98546.31;7285479;19;130553;-40
2023/08/31 00:23:48;;;;;;;181.45;10.27;;;;;;;23.38;54.30;98561.47;7283348;19;130148;-38
2023/08/31 00:26:14;;;;;;;222.00;12.13;;;;;;;23.39;53.68;98558.66;7275356;19;129999;-36
2023/08/31 00:28:42;;;;;;;220.52;12.25;;;;;;;23.38;53.42;98567.53;7273032;19;130112;-37
2023/08/31 00:31:07;;;;;;;253.57;13.20;;;;;;;23.38;53.77;98562.31;7274485;19;132873;-35
2023/08/31 00:33:33;;;;;;;205.13;11.80;;;;;;;23.24;54.52;98544.66;7274041;19;129525;-38
2023/08/31 00:36:03;;;;;;;276.13;15.10;;;;;;;23.35;54.45;98562.66;7271901;19;130381;-35
2023/08/31 00:38:28;;;;;;;190.10;10.32;;;;;;;23.37;53.47;98560.66;7272930;19;131028;-37
2023/08/31 00:40:54;;;;;;;291.90;14.77;;;;;;;23.39;54.73;98563.13;7272017;19;129931;-35
2023/08/31 00:43:19;;;;;;;222.97;12.30;;;;;;;23.42;53.98;98560.94;7275301;19;130924;-39
2023/08/31 00:45:46;;;;;;;226.07;12.13;;;;;;;23.42;53.75;98566.19;7271103;19;131075;-37
2023/08/31 00:48:16;;;;;;;225.52;12.73;;;;;;;23.29;53.66;98552.84;7273931;19;131212;-38
2023/08/31 00:50:42;;;;;;;273.65;14.30;;;;;;;23.38;53.74;98570.16;7274203;19;132161;-38
2023/08/31 00:53:08;;;;;;;227.57;12.10;;;;;;;23.37;54.07;98571.13;7273570;19;130081;-35
2023/08/31 00:55:33;;;;;;;244.77;13.00;;;;;;;23.36;54.15;98564.28;7268627;19;130959;-35
2023/08/31 00:57:59;;;;;;;219.80;11.73;;;;;;;23.36;53.89;98569.53;7270695;19;130161;-36
2023/08/31 01:00:48;;;;;;;267.42;13.68;;;;;;;23.38;54.45;98567.53;7273355;19;130974;-35
2023/08/31 01:03:29;;;;;;;287.65;14.82;;;;;;;23.36;54.71;98566.91;7274066;19;130810;-34
2023/08/31 01:06:11;;;;;;;288.15;15.27;;;;;;;23.37;54.32;98558.03;7270499;19;131108;-34
2023/08/31 01:09:10;;;;;;;257.38;14.82;;;;;;;23.35;55.39;98553.97;7272136;19;130576;-35
2023/08/31 01:12:03;;;;;;;245.75;12.95;;;;;;;23.33;55.60;98559.38;7270167;19;130371;-35
2023/08/31 01:14:52;;;;;;;264.10;13.65;;;;;;;23.36;54.06;98574.75;7269486;19;131949;-34
2023/08/31 01:17:22;;;;;;;245.88;12.80;;;;;;;23.38;53.79;98564.09;7269526;19;130191;-37
2023/08/31 01:19:59;;;;;;;248.73;13.23;;;;;;;23.31;55.15;98544.78;7273906;19;131246;-33
2023/08/31 01:22:31;;;;;;;215.35;11.68;;;;;;;23.38;54.02;98557.06;7273122;19;131054;-38
2023/08/31 01:25:02;;;;;;;211.05;11.57;;;;;;;23.39;53.58;98550.81;7270196;19;129756;-37
2023/08/31 01:27:28;;;;;;;217.63;11.60;;;;;;;23.39;53.76;98542.94;7270076;19;129845;-34
2023/08/31 01:29:54;;;;;;;263.53;13.93;;;;;;;23.40;54.55;98539.34;7271474;19;130621;-37
2023/08/31 01:32:20;;;;;;;230.25;12.18;;;;;;;23.37;53.39;98537.03;7269783;19;133159;-37
2023/08/31 01:34:45;;;;;;;228.27;12.30;;;;;;;23.39;53.78;98532.44;7272068;19;131404;-36
2023/08/31 01:37:17;;;;;;;199.30;10.90;;;;;;;23.37;54.21;98534.41;7276962;19;130973;-38
2023/08/31 01:40:10;;;;;;;199.20;10.93;;;;;;;23.36;55.30;98542.47;7282826;19;130818;-37
2023/08/31 01:42:36;;;;;;;145.18;8.10;;;;;;;23.36;54.09;98535.41;7289756;19;130853;-37
2023/08/31 01:45:02;;;;;;;183.07;10.13;;;;;;;23.36;53.69;98543.28;7287274;19;129408;-38
2023/08/31 01:47:28;;;;;;;158.85;8.75;;;;;;;23.35;53.22;98546.09;7285402;19;129406;-35
2023/08/31 01:49:54;;;;;;;200.10;11.03;;;;;;;23.36;53.82;98548.53;7288333;19;130770;-38
2023/08/31 01:52:19;;;;;;;184.47;9.93;;;;;;;23.23;53.24;98527.31;7285960;19;130374;-39
2023/08/31 01:54:44;;;;;;;208.13;11.50;;;;;;;23.36;53.65;98545.91;7286805;19;129152;-36
2023/08/31 01:57:10;;;;;;;168.43;9.37;;;;;;;23.37;53.83;98555.41;7287412;19;131283;-37
2023/08/31 01:59:35;;;;;;;142.23;8.10;;;;;;;23.35;53.87;98557.41;7289872;19;130675;-37
2023/08/31 02:02:01;;;;;;;218.07;11.75;;;;;;;23.27;53.34;98549.56;7287184;19;130507;-38
2023/08/31 02:04:26;;;;;;;181.93;9.77;;;;;;;23.32;53.53;98568.22;7290063;19;130777;-37
2023/08/31 02:06:52;;;;;;;142.82;8.05;;;;;;;23.36;53.64;98564.28;7287940;19;130735;-34
2023/08/31 02:09:17;;;;;;;148.05;7.95;;;;;;;23.32;53.42;98562.19;7286849;19;130051;-35
2023/08/31 02:11:42;;;;;;;217.37;11.23;;;;;;;23.22;53.44;98551.91;7286997;19;130190;-38
2023/08/31 02:14:08;;;;;;;204.73;11.23;;;;;;;23.30;54.39;98569.41;7287293;19;130275;-37
2023/08/31 02:16:34;;;;;;;191.10;10.53;;;;;;;23.23;54.01;98575.34;7287600;19;130056;-36
2023/08/31 02:18:59;;;;;;;210.80;11.27;;;;;;;23.33;53.96;98590.84;7287626;19;129740;-36
2023/08/31 02:21:25;;;;;;;206.27;10.90;;;;;;;23.34;53.47;98589.06;7286672;19;131250;-36
2023/08/31 02:23:50;;;;;;;189.30;11.77;;;;;;;23.33;53.78;98596.09;7287664;19;129868;-38
2023/08/31 02:26:16;;;;;;;174.75;9.45;;;;;;;23.30;53.84;98583.34;7287591;19;131569;-39
2023/08/31 02:28:41;;;;;;;235.80;11.93;;;;;;;23.32;52.76;98591.03;7286560;19;130151;-37
2023/08/31 02:31:06;;;;;;;249.77;12.57;;;;;;;23.32;53.20;98598.91;7285929;19;129554;-34
2023/08/31 02:33:32;;;;;;;143.97;7.87;;;;;;;23.31;52.95;98598.06;7285644;19;129665;-35
2023/08/31 02:35:57;;;;;;;176.17;9.37;;;;;;;23.32;53.47;98591.03;7284102;19;129799;-39
2023/08/31 02:38:23;;;;;;;234.00;11.97;;;;;;;23.28;53.41;98608.09;7286368;19;130055;-38
2023/08/31 02:40:49;;;;;;;214.23;10.97;;;;;;;23.25;52.70;98617.13;7287200;19;130385;-34
2023/08/31 02:43:14;;;;;;;179.87;9.47;;;;;;;23.15;52.73;98596.34;7286962;19;130256;-37
2023/08/31 02:45:40;;;;;;;172.77;9.00;;;;;;;23.30;53.70;98614.81;7285249;19;129615;-38
2023/08/31 02:48:08;;;;;;;247.50;12.47;;;;;;;23.28;53.51;98622.03;7284677;19;129511;-40
2023/08/31 02:50:37;;;;;;;215.82;10.65;;;;;;;23.27;53.12;98622.22;7286432;19;131010;-37
2023/08/31 02:53:03;;;;;;;167.55;8.82;;;;;;;23.17;52.60;98611.94;7287992;19;131323;-38
2023/08/31 02:55:28;;;;;;;171.37;8.97;;;;;;;23.28;52.81;98629.91;7285095;19;129382;-38
2023/08/31 02:57:54;;;;;;;197.23;10.20;;;;;;;23.30;52.75;98637.59;7283728;19;130013;-39
2023/08/31 03:00:21;;;;;;;209.13;10.63;;;;;;;23.27;52.53;98630.09;7288340;19;131109;-34
2023/08/31 03:02:51;;;;;;;175.95;9.25;;;;;;;23.24;53.00;98628.56;7287180;19;130358;-36
2023/08/31 03:05:17;;;;;;;195.90;10.00;;;;;;;23.23;52.85;98626.94;7284697;19;129692;-39
2023/08/31 03:07:43;;;;;;;209.93;10.70;;;;;;;23.19;52.41;98615.16;7285811;19;130410;-38
2023/08/31 03:10:08;;;;;;;176.60;8.53;;;;;;;23.23;53.17;98630.41;7284792;19;131195;-36
2023/08/31 03:12:34;;;;;;;215.10;11.20;;;;;;;23.25;52.91;98640.72;7285740;19;131482;-37
2023/08/31 03:14:59;;;;;;;213.23;10.67;;;;;;;23.25;52.46;98635.47;7284421;19;129942;-37
2023/08/31 03:17:24;;;;;;;193.60;9.82;;;;;;;23.27;52.19;98630.09;7284187;19;129640;-39
2023/08/31 03:19:50;;;;;;;187.97;9.70;;;;;;;23.27;52.23;98627.47;7285716;19;130203;-36
2023/08/31 03:22:15;;;;;;;169.30;9.17;;;;;;;23.22;51.81;98626.13;7286305;19;129463;-35
2023/08/31 03:24:41;;;;;;;182.10;9.30;;;;;;;23.23;52.49;98627.78;7284457;19;130371;-36
2023/08/31 03:27:06;;;;;;;253.50;12.13;;;;;;;23.24;52.06;98633.81;7283593;19;130262;-39
2023/08/31 03:29:32;;;;;;;162.40;8.57;;;;;;;23.24;51.98;98639.06;7287290;19;130736;-34
2023/08/31 03:31:57;;;;;;;170.40;9.07;;;;;;;23.26;51.80;98647.59;7284473;19;131471;-38
2023/08/31 03:34:23;;;;;;;178.73;9.40;;;;;;;23.22;51.96;98641.06;7284491;19;129711;-36
2023/08/31 03:36:50;;;;;;;208.73;10.65;;;;;;;23.23;52.39;98647.94;7283852;19;130122;-38
2023/08/31 03:39:15;;;;;;;251.38;13.40;;;;;;;23.09;52.42;98635.53;7285961;19;130298;-39
2023/08/31 03:41:41;;;;;;;195.63;9.87;;;;;;;23.21;52.64;98655.97;7286360;19;131311;-39
2023/08/31 03:44:06;;;;;;;177.52;9.45;;;;;;;23.23;52.48;98666.28;7284323;19;131570;-37
2023/08/31 03:46:31;;;;;;;286.73;14.40;;;;;;;23.24;52.52;98667.91;7283319;19;131877;-38
2023/08/31 03:48:57;;;;;;;155.65;8.52;;;;;;;23.25;52.67;98669.56;7287625;19;130283;-38
2023/08/31 03:51:22;;;;;;;136.25;7.15;;;;;;;23.24;52.53;98663.50;7285700;19;130119;-37
2023/08/31 03:53:47;;;;;;;161.90;8.30;;;;;;;23.25;52.94;98666.94;7283940;19;129611;-35
2023/08/31 03:56:13;;;;;;;214.03;10.83;;;;;;;23.23;52.01;98653.19;7282478;19;130217;-35
2023/08/31 03:58:38;;;;;;;183.23;9.60;;;;;;;23.19;52.63;98667.59;7286237;19;131227;-38
2023/08/31 04:01:05;;;;;;;216.23;11.17;;;;;;;23.21;52.67;98673.50;7284713;19;132525;-39
2023/08/31 04:03:30;;;;;;;;;;;;;;;23.17;54.34;98669.63;7285012;19;129541;-37
2023/08/31 04:05:56;;;;;;;222.57;11.37;;;;;;;23.20;52.89;98666.63;7279641;19;129852;-36
2023/08/31 04:08:21;;;;;;;169.13;9.00;;;;;;;23.22;53.02;98668.09;7283940;19;130141;-39
2023/08/31 04:10:47;;;;;;;205.98;10.65;;;;;;;23.20;52.26;98658.78;7284115;19;132012;-37
2023/08/31 04:13:12;;;;;;;199.37;10.13;;;;;;;23.06;52.05;98641.13;7285047;19;131860;-39
2023/08/31 04:15:37;;;;;;;208.10;10.98;;;;;;;23.19;52.35;98657.13;7283520;19;129949;-36
2023/08/31 04:18:03;;;;;;;152.67;7.90;;;;;;;23.07;52.72;98648.03;7280750;19;131186;-35
2023/08/31 04:20:29;;;;;;;188.97;9.87;;;;;;;23.21;52.85;98665.63;7284030;19;129432;-38
2023/08/31 04:22:54;;;;;;;191.77;9.17;;;;;;;23.10;52.72;98652.94;7284731;19;129739;-40
2023/08/31 04:25:19;;;;;;;186.10;9.73;;;;;;;23.20;52.57;98670.06;7281496;19;130839;-34
2023/08/31 04:27:45;;;;;;;188.48;9.85;;;;;;;23.11;52.38;98650.13;7278903;19;130049;-35
2023/08/31 04:30:11;;;;;;;204.33;10.70;;;;;;;23.21;52.88;98666.47;7282436;19;132167;-39
2023/08/31 04:32:36;;;;;;;230.82;11.48;;;;;;;23.22;53.28;98677.78;7280359;19;131262;-38
2023/08/31 04:35:05;;;;;;;121.37;6.50;;;;;;;23.21;52.26;98681.38;7283594;19;130767;-36
2023/08/31 04:37:33;;;;;;;181.15;9.70;;;;;;;23.19;53.21;98685.97;7281760;19;133022;-38
2023/08/31 04:39:59;;;;;;;191.10;9.77;;;;;;;23.21;53.07;98687.44;7282798;19;131957;-37
2023/08/31 04:42:24;;;;;;;247.23;12.40;;;;;;;23.20;52.34;98687.63;7279900;19;130331;-37
2023/08/31 04:44:50;;;;;;;197.83;10.00;;;;;;;23.21;53.14;98694.47;7281967;19;130099;-38
2023/08/31 04:47:15;;;;;;;165.37;8.43;;;;;;;23.21;53.10;98691.88;7280887;19;130425;-37
2023/08/31 04:49:41;;;;;;;203.10;10.70;;;;;;;23.10;52.50;98674.72;7282391;19;130459;-34
2023/08/31 04:52:06;;;;;;;266.60;13.63;;;;;;;23.21;52.56;98704.97;7280186;19;129224;-38
2023/08/31 04:54:32;;;;;;;255.37;14.03;;;;;;;23.20;52.60;98712.00;7280848;19;130340;-38
2023/08/31 04:56:57;;;;;;;199.03;10.30;;;;;;;23.25;52.86;98708.91;7278175;19;131901;-38
2023/08/31 04:59:23;;;;;;;201.50;10.40;;;;;;;23.10;52.64;98695.69;7282332;19;130101;-34
2023/08/31 05:01:48;;;;;;;148.77;7.80;;;;;;;23.22;52.71;98719.75;7282222;19;129793;-37
2023/08/31 05:04:13;;;;;;;184.03;9.50;;;;;;;23.21;52.09;98723.34;7282927;19;130263;-40
2023/08/31 05:06:39;;;;;;;168.20;8.80;;;;;;;23.20;51.99;98724.34;7283492;19;131301;-38
2023/08/31 05:09:05;;;;;;;193.40;9.77;;;;;;;23.23;52.42;98731.84;7282135;19;130922;-34
2023/08/31 05:11:31;;;;;;;;;;;;;;;23.08;53.81;98717.81;7282732;19;129302;-35
2023/08/31 05:13:56;;;;;;;279.97;15.70;;;;;;;23.25;52.54;98745.63;7281963;19;130916;-39
2023/08/31 05:16:21;;;;;;;217.07;11.57;;;;;;;23.19;52.20;98741.03;7286861;19;130725;-38
2023/08/31 05:18:50;;;;;;;215.65;10.70;;;;;;;23.17;52.17;98748.28;7286444;19;131221;-36
2023/08/31 05:21:16;;;;;;;147.98;7.50;;;;;;;23.10;52.84;98731.59;7290593;19;130906;-36
2023/08/31 05:23:41;;;;;;;210.33;10.67;;;;;;;23.21;52.66;98749.56;7287027;19;131772;-36
2023/08/31 05:26:07;;;;;;;140.83;7.37;;;;;;;23.20;52.42;98750.56;7284896;19;129957;-37
2023/08/31 05:28:32;;;;;;;252.13;12.73;;;;;;;23.18;52.70;98750.72;7288595;19;130110;-36
2023/08/31 05:31:00;;;;;;;220.30;11.40;;;;;;;23.18;52.71;98760.38;7289056;19;131218;-36
2023/08/31 05:33:27;;;;;;;201.77;10.77;;;;;;;23.16;52.32;98757.13;7284893;19;132093;-35
2023/08/31 05:35:52;;;;;;;189.38;10.20;;;;;;;23.17;52.19;98764.00;7284887;19;130300;-36
2023/08/31 05:38:18;;;;;;;210.23;10.90;;;;;;;23.16;52.01;98767.59;7289340;19;131569;-36
2023/08/31 05:40:45;;;;;;;193.37;10.10;;;;;;;23.17;53.01;98775.28;7288254;19;129813;-36
2023/08/31 05:43:14;;;;;;;183.20;9.43;;;;;;;23.17;52.26;98769.25;7289101;19;131961;-36
2023/08/31 05:45:39;;;;;;;178.32;9.57;;;;;;;23.16;52.94;98776.28;7276009;19;129557;-36
2023/08/31 05:48:05;;;;;;;215.67;11.17;;;;;;;23.17;52.95;98771.88;7283275;19;129218;-36
2023/08/31 05:50:31;;;;;;;179.63;9.60;;;;;;;23.08;51.93;98772.88;7290744;19;132714;-37
2023/08/31 05:52:57;;;;;;;175.50;9.77;;;;;;;23.02;52.50;98776.19;7286466;19;131119;-37
2023/08/31 05:55:22;;;;;;;188.10;10.37;;;;;;;22.98;52.69;98774.88;7282984;19;130619;-36
2023/08/31 05:57:48;;;;;;;237.77;12.57;;;;;;;22.97;52.04;98773.25;7284042;19;130089;-36
2023/08/31 06:00:14;;;;;;;180.53;9.90;;;;;;;22.97;51.93;98773.25;7288870;19;131190;-36
2023/08/31 06:02:39;;;;;;;145.87;8.00;;;;;;;22.95;52.13;98770.81;7287242;19;131169;-36
2023/08/31 06:05:05;;;;;;;199.97;10.90;;;;;;;22.94;51.98;98776.22;7285556;19;130754;-37
2023/08/31 06:07:31;;;;;;;205.55;10.70;;;;;;;22.92;52.64;98765.88;7285721;19;130548;-36
2023/08/31 06:09:57;;;;;;;149.13;8.57;;;;;;;22.92;52.72;98770.31;7287797;19;129736;-36
2023/08/31 06:12:22;;;;;;;177.00;9.70;;;;;;;22.96;52.15;98768.97;7284260;19;130456;-35
2023/08/31 06:14:47;;;;;;;210.43;11.17;;;;;;;22.97;52.25;98768.81;7287191;19;130474;-34
2023/08/31 06:17:13;;;;;;;220.18;11.63;;;;;;;22.96;52.56;98772.41;7285446;19;129565;-37
2023/08/31 06:19:42;;;;;;;161.97;8.57;;;;;;;23.03;52.82;98777.81;7288261;19;129223;-38
2023/08/31 06:22:07;;;;;;;167.48;9.45;;;;;;;23.01;52.36;98770.13;7287847;19;130676;-35
2023/08/31 06:24:33;;;;;;;222.67;11.70;;;;;;;22.99;51.79;98781.78;7280261;19;130597;-38
2023/08/31 06:26:59;;;;;;;246.27;12.73;;;;;;;22.98;52.33;98785.34;7282650;19;130102;-34
2023/08/31 06:29:25;;;;;;;110.00;5.80;;;;;;;23.04;52.54;98787.28;7298315;19;129415;-38
2023/08/31 06:31:50;;;;;;;105.20;6.03;;;;;;;23.07;53.02;98794.84;7305051;19;130067;-39
2023/08/31 06:34:15;;;;;;;126.40;6.77;;;;;;;23.11;52.62;98791.72;7304922;19;129941;-39
2023/08/31 06:36:41;;;;;;;109.87;5.77;;;;;;;23.17;52.75;98790.22;7306187;19;129638;-38
2023/08/31 06:39:06;;;;;;;62.90;3.83;;;;;;;23.19;52.94;98803.97;7307414;19;129575;-38
2023/08/31 06:41:32;;;;;;;119.60;6.10;;;;;;;23.25;52.39;98798.06;7304890;19;129865;-36
2023/08/31 06:43:57;;;;;;;189.07;11.13;;;;;;;23.26;52.51;98799.69;7305948;19;130027;-37
2023/08/31 06:46:22;;;;;;;96.43;5.10;;;;;;;23.35;53.03;98803.13;7305468;19;129140;-38
2023/08/31 06:48:48;;;;;;;91.13;5.10;;;;;;;23.36;52.95;98810.00;7306085;19;129872;-37
2023/08/31 06:51:14;;;;;;;77.27;4.40;;;;;;;23.38;52.92;98808.88;7307131;19;131097;-39
2023/08/31 06:53:41;;;;;;;146.60;7.43;;;;;;;23.42;52.49;98812.78;7306121;19;129556;-39
2023/08/31 06:56:07;;;;;;;142.27;7.47;;;;;;;23.39;52.49;98800.00;7303527;19;129392;-36
2023/08/31 06:58:32;;;;;;;88.87;4.83;;;;;;;23.47;52.60;98815.69;7306344;19;130110;-39
2023/08/31 07:00:58;;;;;;;128.87;6.70;;;;;;;23.47;52.55;98813.06;7304517;19;130756;-35
2023/08/31 07:03:23;;;;;;;138.63;7.00;;;;;;;23.43;52.40;98818.84;7306675;19;130891;-38
2023/08/31 07:05:49;;;;;;;99.57;5.60;;;;;;;23.40;52.97;98824.44;7305870;19;129735;-34
2023/08/31 07:08:14;;;;;;;69.70;4.37;;;;;;;23.39;52.96;98820.97;7305414;19;129243;-38
2023/08/31 07:10:40;;;;;;;115.00;6.30;;;;;;;23.35;52.87;98817.09;7303329;19;129651;-39
2023/08/31 07:13:05;;;;;;;123.77;6.23;;;;;;;23.38;52.98;98834.28;7303844;19;130307;-35
2023/08/31 07:15:31;;;;;;;78.87;4.83;;;;;;;23.33;52.25;98828.72;7305048;19;129372;-39
2023/08/31 07:17:56;;;;;;;119.47;6.23;;;;;;;23.36;52.87;98831.81;7299079;19;129832;-39
2023/08/31 07:20:21;;;;;;;99.25;5.25;;;;;;;23.37;52.80;98833.44;7303926;19;129724;-38
2023/08/31 07:22:47;;;;;;;105.80;5.50;;;;;;;23.29;52.86;98809.06;7306881;19;129595;-38
2023/08/31 07:25:12;;;;;;;126.97;6.97;;;;;;;23.41;53.14;98844.41;7302587;19;129211;-39
2023/08/31 07:27:38;;;;;;;103.03;5.50;;;;;;;23.41;52.17;98842.63;7303548;19;129635;-36
2023/08/31 07:30:05;;;;;;;103.03;5.67;;;;;;;23.48;52.18;98848.84;7306191;19;130663;-39
2023/08/31 07:32:31;;;;;;;86.05;4.82;;;;;;;23.53;52.64;98854.41;7304649;19;129653;-36
2023/08/31 07:34:56;;;;;;;73.67;4.13;;;;;;;23.53;52.32;98851.78;7304581;19;130002;-38
2023/08/31 07:37:22;;;;;;;99.85;5.40;;;;;;;23.53;53.17;98859.66;7301494;19;129914;-38
2023/08/31 07:39:47;;;;;;;128.63;6.57;;;;;;;23.55;52.33;98862.88;7302873;19;129651;-37
2023/08/31 07:42:12;;;;;;;104.60;5.50;;;;;;;23.59;52.25;98864.19;7305873;19;130451;-36
2023/08/31 07:44:38;;;;;;;99.67;5.43;;;;;;;23.63;52.17;98860.25;7303143;19;129646;-37
2023/08/31 07:47:03;;;;;;;74.87;4.10;;;;;;;23.63;51.97;98865.50;7304256;19;129560;-37
2023/08/31 07:49:28;;;;;;;141.00;7.13;;;;;;;23.66;52.61;98867.78;7304390;19;129657;-37
2023/08/31 07:51:54;;;;;;;87.53;4.87;;;;;;;23.54;51.99;98845.53;7304754;19;129370;-38
2023/08/31 07:54:23;;;;;;;120.28;6.43;;;;;;;23.67;52.24;98866.78;7301297;19;129469;-38
2023/08/31 07:56:48;;;;;;;71.95;4.30;;;;;;;23.70;52.43;98861.19;7302800;19;130894;-39
2023/08/31 07:59:14;;;;;;;146.97;7.20;;;;;;;23.71;51.64;98862.03;7305129;19;129391;-37
2023/08/31 08:01:41;;;;;;;84.27;4.63;;;;;;;23.70;51.49;98870.91;7304212;19;129858;-38
2023/08/31 08:04:06;;;;;;;;;;;;;;;23.68;53.08;98872.88;7304871;19;128942;-39
2023/08/31 08:06:31;;;;;;;103.83;5.43;;;;;;;23.70;52.23;98876.16;7302736;19;129002;-38
2023/08/31 08:08:56;;;;;;;162.65;8.20;;;;;;;23.70;52.16;98866.44;7302389;19;131100;-38
2023/08/31 08:11:22;;;;;;;94.57;5.27;;;;;;;23.70;51.79;98866.44;7304798;19;129721;-37
2023/08/31 08:13:48;;;;;;;74.93;4.43;;;;;;;23.72;52.39;98861.84;7299616;19;129066;-38
2023/08/31 08:16:14;;;;;;;100.70;5.23;;;;;;;23.59;52.26;98848.47;7301791;19;129425;-36
2023/08/31 08:18:40;;;;;;;121.63;6.10;;;;;;;23.71;51.83;98860.22;7304956;19;130739;-37
2023/08/31 08:21:06;;;;;;;60.75;3.38;;;;;;;23.51;52.21;98845.88;7304704;19;129464;-37
2023/08/31 08:23:31;;;;;;;122.30;7.07;;;;;;;24.76;51.88;98864.84;7303238;19;129688;-37
2023/08/31 08:25:59;;;;;;;138.20;7.67;;;;;;;23.94;51.14;98852.38;7299303;19;129145;-40
2023/08/31 08:28:25;;;;;;;100.18;5.25;;;;;;;23.75;51.88;98876.44;7305399;19;130200;-40
2023/08/31 08:30:50;;;;;;;94.63;5.23;;;;;;;23.55;51.41;98852.41;7304452;19;129526;-41
2023/08/31 08:33:15;;;;;;;143.27;7.47;;;;;;;23.54;51.34;98882.25;7302372;19;129636;-40
2023/08/31 08:35:41;;;;;;;96.10;5.13;;;;;;;23.44;51.26;98867.69;7302068;19;129598;-40
2023/08/31 08:38:06;;;;;;;132.67;7.53;;;;;;;23.51;51.37;98876.53;7300908;19;129909;-38
2023/08/31 08:40:33;;;;;;;87.03;5.17;;;;;;;23.50;51.46;98880.97;7303274;19;131282;-39
2023/08/31 08:43:00;;;;;;;83.97;4.65;;;;;;;23.48;52.25;98885.56;7304042;19;129555;-40
2023/08/31 08:45:36;;;;;;;133.05;7.10;;;;;;;23.49;51.35;98876.69;7301034;19;129776;-37
2023/08/31 08:48:05;;;;;;;103.00;5.50;;;;;;;23.56;50.79;98884.72;7299577;19;130197;-39
2023/08/31 08:50:33;;;;;;;105.45;5.57;;;;;;;23.58;51.51;98883.56;7302087;19;131095;-39
2023/08/31 08:52:59;;;;;;;96.53;5.78;;;;;;;23.57;50.74;98881.91;7301942;19;129247;-38
2023/08/31 08:55:25;;;;;;;86.17;4.67;;;;;;;23.57;51.04;98892.41;7300563;19;129596;-37
2023/08/31 08:57:50;;;;;;;131.10;6.60;;;;;;;23.64;50.34;98893.38;7300808;19;130360;-38
2023/08/31 09:00:16;;;;;;;108.93;6.10;;;;;;;23.66;50.63;98887.97;7303223;19;129768;-38
2023/08/31 09:02:41;;;;;;;80.73;4.40;;;;;;;23.69;50.30;98888.44;7303174;19;130377;-37
2023/08/31 09:05:07;;;;;;;108.63;6.00;;;;;;;23.61;50.48;98885.84;7301644;19;129146;-37
2023/08/31 09:07:36;;;;;;;114.17;6.10;;;;;;;23.64;50.33;98893.38;7298368;19;130582;-38
2023/08/31 09:10:01;;;;;;;100.07;5.53;;;;;;;23.67;49.79;98894.84;7301334;19;130479;-38
2023/08/31 09:12:27;;;;;;;86.90;5.30;;;;;;;23.61;49.73;98891.09;7302082;19;129413;-38
2023/08/31 09:15:02;;;;;;;95.90;5.13;;;;;;;23.72;49.98;98898.59;7299378;19;130323;-38
2023/08/31 09:17:41;;;;;;;129.90;6.38;;;;;;;23.71;50.54;98894.34;7298592;19;130184;-38
2023/08/31 09:20:09;;;;;;;146.57;7.25;;;;;;;23.72;48.99;98901.22;7299949;19;130417;-38
2023/08/31 09:22:35;;;;;;;86.38;4.63;;;;;;;23.69;49.39;98904.19;7302353;19;129467;-37
2023/08/31 09:25:01;;;;;;;97.40;5.32;;;;;;;23.69;48.99;98900.72;7299883;19;130292;-35
2023/08/31 09:27:27;;;;;;;91.43;4.95;;;;;;;23.69;49.21;98906.81;7297615;19;130251;-37
2023/08/31 09:29:56;;;;;;;135.73;7.03;;;;;;;23.70;50.06;98908.44;7301671;19;130973;-38
2023/08/31 09:32:21;;;;;;;116.88;6.30;;;;;;;23.66;49.38;98909.78;7302222;19;129545;-37
2023/08/31 09:34:47;;;;;;;71.57;4.07;;;;;;;23.66;50.33;98917.66;7300006;19;129729;-37
2023/08/31 09:37:15;;;;;;;113.63;6.37;;;;;;;23.71;50.02;98914.50;7299246;19;130682;-37
2023/08/31 09:39:41;;;;;;;127.13;6.43;;;;;;;23.71;50.53;98915.34;7300019;19;130264;-38
2023/08/31 09:42:07;;;;;;;101.68;5.47;;;;;;;23.63;50.61;98907.50;7302783;19;129474;-36
2023/08/31 09:44:32;;;;;;;96.53;5.07;;;;;;;23.71;50.44;98910.09;7300924;19;129773;-37
2023/08/31 09:46:58;;;;;;;114.63;6.13;;;;;;;23.71;49.74;98907.47;7298635;19;130046;-37
2023/08/31 09:49:25;;;;;;;113.77;6.20;;;;;;;23.72;50.46;98903.00;7300876;19;130204;-37
2023/08/31 09:51:51;;;;;;;;;;;;;;;23.72;51.11;98906.47;7301602;19;130099;-37
2023/08/31 09:54:18;;;;;;;100.95;5.47;;;;;;;23.76;49.04;98907.78;7297385;19;130438;-36
2023/08/31 09:56:44;;;;;;;102.13;5.65;;;;;;;23.69;48.86;98913.84;7295466;19;129862;-37
2023/08/31 09:59:12;;;;;;;126.03;6.53;;;;;;;23.65;49.81;98908.13;7299201;19;129179;-37
2023/08/31 10:01:38;;;;;;;71.50;4.40;;;;;;;23.59;49.60;98910.59;7306044;19;130320;-37
2023/08/31 10:04:05;;;;;;;179.90;9.23;;;;;;;23.57;49.34;98908.16;7297319;19;129704;-37
2023/08/31 10:06:32;;;;;;;110.20;5.75;;;;;;;23.56;49.63;98914.41;7303405;19;130373;-36
2023/08/31 10:08:58;;;;;;;130.88;6.78;;;;;;;23.55;49.84;98910.13;7304956;19;130151;-38
2023/08/31 10:11:27;;;;;;;87.38;4.88;;;;;;;23.56;49.91;98911.78;7306628;19;130217;-37
2023/08/31 10:13:54;;;;;;;195.98;11.40;;;;;;;23.56;50.17;98911.78;7301938;19;129430;-37
2023/08/31 10:16:21;;;;;;;97.28;5.45;;;;;;;23.52;49.41;98909.66;7304716;19;129462;-37
2023/08/31 10:18:47;;;;;;;132.15;6.72;;;;;;;23.55;50.18;98920.63;7303620;19;131483;-37
2023/08/31 10:21:16;;;;;;;76.20;4.53;;;;;;;23.53;50.58;98920.00;7308588;19;129790;-38
2023/08/31 10:23:48;;;;;;;85.55;4.80;;;;;;;23.51;50.84;98908.84;7307310;19;129729;-37
2023/08/31 10:26:24;;;;;;;108.80;6.03;;;;;;;23.53;50.59;98922.63;7305541;19;130217;-37
2023/08/31 10:28:51;;;;;;;127.20;6.35;;;;;;;23.57;50.00;98913.41;7305176;19;129623;-37
2023/08/31 10:31:17;;;;;;;132.40;6.70;;;;;;;23.51;50.29;98908.84;7304392;19;129603;-37
2023/08/31 10:33:54;;;;;;;108.25;6.20;;;;;;;23.63;50.52;98922.41;7303867;19;129701;-37
2023/08/31 10:36:20;;;;;;;91.30;5.05;;;;;;;23.66;50.07;98907.16;7304568;19;130742;-37
2023/08/31 10:39:21;;;;;;;87.53;4.93;;;;;;;23.70;50.57;98916.31;7305386;19;129890;-37
2023/08/31 10:41:56;;;;;;;95.65;5.32;;;;;;;23.68;50.20;98910.44;7306715;19;129545;-37
2023/08/31 10:44:23;;;;;;;84.32;4.85;;;;;;;23.68;50.24;98910.44;7305693;19;129904;-37
2023/08/31 10:46:50;;;;;;;153.85;7.47;;;;;;;23.73;50.83;98913.38;7304693;19;130099;-37
2023/08/31 10:49:18;;;;;;;126.05;6.53;;;;;;;23.75;49.86;98906.13;7306096;19;129573;-37
2023/08/31 10:51:49;;;;;;;82.93;4.88;;;;;;;23.77;50.50;98905.94;7305653;19;129289;-37
2023/08/31 10:54:26;;;;;;;103.38;5.53;;;;;;;23.76;51.31;98899.91;7302752;19;129352;-38
2023/08/31 10:56:54;;;;;;;84.03;4.77;;;;;;;23.81;50.72;98900.22;7306338;19;131452;-38
2023/08/31 10:59:20;;;;;;;146.90;7.45;;;;;;;23.83;49.97;98913.16;7304355;19;130376;-38
2023/08/31 11:01:55;;;;;;;;;;;;;;;23.71;51.20;98894.34;7307511;19;129544;-38
2023/08/31 11:04:25;;;;;;;72.30;4.03;;;;;;;23.81;50.38;98908.09;7305897;19;129391;-38
2023/08/31 11:07:14;;;;;;;81.43;4.57;;;;;;;23.78;51.37;98908.44;7303562;19;131714;-38
2023/08/31 11:09:39;;;;;;;105.22;5.60;;;;;;;23.84;49.77;98909.53;7304443;19;129632;-39